sensor_id;sensor_type;location;lat;lon;timestamp;temperature;humidity
19359;DHT22;9815;52.334;20.890;2022-10-28T00:00:51;8.50;99.90
19359;DHT22;9815;52.334;20.890;2022-10-28T00:03:19;8.40;99.90
19359;DHT22;9815;52.334;20.890;2022-10-28T00:05:47;8.40;99.90
19359;DHT22;9815;52.334;20.890;2022-10-28T00:08:15;8.40;99.90
19359;DHT22;9815;52.334;20.890;2022-10-28T00:10:43;8.30;99.90
19359;DHT22;9815;52.334;20.890;2022-10-28T00:13:11;8.30;99.90
19359;DHT22;9815;52.334;20.890;2022-10-28T00:15:40;8.30;99.90
19359;DHT22;9815;52.334;20.890;2022-10-28T00:18:08;8.30;99.90
19359;DHT22;9815;52.334;20.890;2022-10-28T00:20:37;8.20;99.90
19359;DHT22;9815;52.334;20.890;2022-10-28T00:23:04;8.20;99.90
19359;DHT22;9815;52.334;20.890;2022-10-28T00:25:32;8.20;99.90
19359;DHT22;9815;52.334;20.890;2022-10-28T00:28:00;8.20;99.90
19359;DHT22;9815;52.334;20.890;2022-10-28T00:30:28;8.20;99.90
19359;DHT22;9815;52.334;20.890;2022-10-28T00:32:57;8.30;99.90
19359;DHT22;9815;52.334;20.890;2022-10-28T00:35:25;8.20;99.90
19359;DHT22;9815;52.334;20.890;2022-10-28T00:37:53;8.30;99.90
19359;DHT22;9815;52.334;20.890;2022-10-28T00:40:21;8.40;99.90
19359;DHT22;9815;52.334;20.890;2022-10-28T00:42:49;8.40;99.90
19359;DHT22;9815;52.334;20.890;2022-10-28T00:45:18;8.40;99.90
19359;DHT22;9815;52.334;20.890;2022-10-28T00:47:49;8.30;99.90
19359;DHT22;9815;52.334;20.890;2022-10-28T00:50:33;8.20;99.90
19359;DHT22;9815;52.334;20.890;2022-10-28T00:53:08;8.20;99.90
19359;DHT22;9815;52.334;20.890;2022-10-28T00:55:37;8.10;99.90
19359;DHT22;9815;52.334;20.890;2022-10-28T00:58:05;8.10;99.90
19359;DHT22;9815;52.334;20.890;2022-10-28T01:00:35;8.10;99.90
19359;DHT22;9815;52.334;20.890;2022-10-28T01:03:03;8.10;99.90
19359;DHT22;9815;52.334;20.890;2022-10-28T01:05:34;8.10;99.90
19359;DHT22;9815;52.334;20.890;2022-10-28T01:08:03;8.00;99.90
19359;DHT22;9815;52.334;20.890;2022-10-28T01:11:10;8.00;99.90
19359;DHT22;9815;52.334;20.890;2022-10-28T01:13:55;8.00;99.90
19359;DHT22;9815;52.334;20.890;2022-10-28T01:16:32;8.00;99.90
19359;DHT22;9815;52.334;20.890;2022-10-28T01:22:17;7.90;99.90
19359;DHT22;9815;52.334;20.890;2022-10-28T01:24:59;8.00;99.90
19359;DHT22;9815;52.334;20.890;2022-10-28T01:27:47;8.00;99.90
19359;DHT22;9815;52.334;20.890;2022-10-28T01:30:18;8.00;99.90
19359;DHT22;9815;52.334;20.890;2022-10-28T01:32:54;8.00;99.90
19359;DHT22;9815;52.334;20.890;2022-10-28T01:35:28;8.00;99.90
19359;DHT22;9815;52.334;20.890;2022-10-28T01:38:14;7.90;99.90
19359;DHT22;9815;52.334;20.890;2022-10-28T01:40:45;7.90;99.90
19359;DHT22;9815;52.334;20.890;2022-10-28T01:43:23;7.90;99.90
19359;DHT22;9815;52.334;20.890;2022-10-28T01:45:57;7.90;99.90
19359;DHT22;9815;52.334;20.890;2022-10-28T01:48:31;7.80;99.90
19359;DHT22;9815;52.334;20.890;2022-10-28T01:51:03;7.80;99.90
19359;DHT22;9815;52.334;20.890;2022-10-28T01:53:36;7.80;99.90
19359;DHT22;9815;52.334;20.890;2022-10-28T01:56:08;7.90;99.90
19359;DHT22;9815;52.334;20.890;2022-10-28T01:58:38;7.80;99.90
19359;DHT22;9815;52.334;20.890;2022-10-28T02:01:08;7.80;99.90
19359;DHT22;9815;52.334;20.890;2022-10-28T02:03:38;7.80;99.90
19359;DHT22;9815;52.334;20.890;2022-10-28T02:06:14;7.80;99.90
19359;DHT22;9815;52.334;20.890;2022-10-28T02:08:53;7.80;99.90
19359;DHT22;9815;52.334;20.890;2022-10-28T02:11:37;7.90;99.90
19359;DHT22;9815;52.334;20.890;2022-10-28T02:14:24;7.90;99.90
19359;DHT22;9815;52.334;20.890;2022-10-28T02:16:59;7.90;99.90
19359;DHT22;9815;52.334;20.890;2022-10-28T02:19:38;7.90;99.90
19359;DHT22;9815;52.334;20.890;2022-10-28T02:22:17;7.90;99.90
19359;DHT22;9815;52.334;20.890;2022-10-28T02:24:53;7.90;99.90
19359;DHT22;9815;52.334;20.890;2022-10-28T02:27:31;7.90;99.90
19359;DHT22;9815;52.334;20.890;2022-10-28T02:30:05;7.90;99.90
19359;DHT22;9815;52.334;20.890;2022-10-28T02:32:36;8.00;99.90
19359;DHT22;9815;52.334;20.890;2022-10-28T02:35:12;8.00;99.90
19359;DHT22;9815;52.334;20.890;2022-10-28T02:37:42;8.10;99.90
19359;DHT22;9815;52.334;20.890;2022-10-28T02:40:16;8.20;99.90
19359;DHT22;9815;52.334;20.890;2022-10-28T02:42:48;8.30;99.90
19359;DHT22;9815;52.334;20.890;2022-10-28T02:45:21;8.30;99.90
19359;DHT22;9815;52.334;20.890;2022-10-28T02:47:52;8.40;99.90
19359;DHT22;9815;52.334;20.890;2022-10-28T02:50:27;8.50;99.90
19359;DHT22;9815;52.334;20.890;2022-10-28T02:52:58;8.50;99.90
19359;DHT22;9815;52.334;20.890;2022-10-28T02:55:32;8.50;99.90
19359;DHT22;9815;52.334;20.890;2022-10-28T02:58:01;8.50;99.90
19359;DHT22;9815;52.334;20.890;2022-10-28T03:00:29;8.50;99.90
19359;DHT22;9815;52.334;20.890;2022-10-28T03:02:57;8.40;99.90
19359;DHT22;9815;52.334;20.890;2022-10-28T03:05:26;8.40;99.90
19359;DHT22;9815;52.334;20.890;2022-10-28T03:07:54;8.40;99.90
19359;DHT22;9815;52.334;20.890;2022-10-28T03:10:22;8.40;99.90
19359;DHT22;9815;52.334;20.890;2022-10-28T03:12:50;8.50;99.90
19359;DHT22;9815;52.334;20.890;2022-10-28T03:15:18;8.50;99.90
19359;DHT22;9815;52.334;20.890;2022-10-28T03:17:46;8.50;99.90
19359;DHT22;9815;52.334;20.890;2022-10-28T03:20:14;8.40;99.90
19359;DHT22;9815;52.334;20.890;2022-10-28T03:22:44;8.50;99.90
19359;DHT22;9815;52.334;20.890;2022-10-28T03:25:12;8.40;99.90
19359;DHT22;9815;52.334;20.890;2022-10-28T03:27:40;8.40;99.90
19359;DHT22;9815;52.334;20.890;2022-10-28T03:30:08;8.50;99.90
19359;DHT22;9815;52.334;20.890;2022-10-28T03:32:36;8.40;99.90
19359;DHT22;9815;52.334;20.890;2022-10-28T03:35:07;8.40;99.90
19359;DHT22;9815;52.334;20.890;2022-10-28T03:37:35;8.40;99.90
19359;DHT22;9815;52.334;20.890;2022-10-28T03:40:06;8.40;99.90
19359;DHT22;9815;52.334;20.890;2022-10-28T03:42:34;8.40;99.90
19359;DHT22;9815;52.334;20.890;2022-10-28T03:45:07;8.30;99.90
19359;DHT22;9815;52.334;20.890;2022-10-28T03:47:35;8.30;99.90
19359;DHT22;9815;52.334;20.890;2022-10-28T03:50:04;8.30;99.90
19359;DHT22;9815;52.334;20.890;2022-10-28T03:52:32;8.20;99.90
19359;DHT22;9815;52.334;20.890;2022-10-28T03:55:00;8.20;99.90
19359;DHT22;9815;52.334;20.890;2022-10-28T03:57:30;8.10;99.90
19359;DHT22;9815;52.334;20.890;2022-10-28T03:59:58;8.10;99.90
19359;DHT22;9815;52.334;20.890;2022-10-28T04:02:26;8.10;99.90
19359;DHT22;9815;52.334;20.890;2022-10-28T04:04:54;8.00;99.90
19359;DHT22;9815;52.334;20.890;2022-10-28T04:07:22;8.00;99.90
19359;DHT22;9815;52.334;20.890;2022-10-28T04:09:50;8.00;99.90
19359;DHT22;9815;52.334;20.890;2022-10-28T04:12:18;8.00;99.90
19359;DHT22;9815;52.334;20.890;2022-10-28T04:14:48;8.00;99.90
19359;DHT22;9815;52.334;20.890;2022-10-28T04:17:16;7.90;99.90
19359;DHT22;9815;52.334;20.890;2022-10-28T04:19:44;7.90;99.90
19359;DHT22;9815;52.334;20.890;2022-10-28T04:22:12;7.90;99.90
19359;DHT22;9815;52.334;20.890;2022-10-28T04:24:40;7.80;99.90
19359;DHT22;9815;52.334;20.890;2022-10-28T04:27:08;7.80;99.90
19359;DHT22;9815;52.334;20.890;2022-10-28T04:29:36;7.90;99.90
19359;DHT22;9815;52.334;20.890;2022-10-28T04:32:05;7.90;99.90
19359;DHT22;9815;52.334;20.890;2022-10-28T04:34:33;7.90;99.90
19359;DHT22;9815;52.334;20.890;2022-10-28T04:37:01;7.90;99.90
19359;DHT22;9815;52.334;20.890;2022-10-28T04:39:29;7.80;99.90
19359;DHT22;9815;52.334;20.890;2022-10-28T04:41:57;7.90;99.90
19359;DHT22;9815;52.334;20.890;2022-10-28T04:44:25;7.90;99.90
19359;DHT22;9815;52.334;20.890;2022-10-28T04:46:54;7.80;99.90
19359;DHT22;9815;52.334;20.890;2022-10-28T04:49:24;7.80;99.90
19359;DHT22;9815;52.334;20.890;2022-10-28T04:51:52;7.80;99.90
19359;DHT22;9815;52.334;20.890;2022-10-28T04:54:20;7.80;99.90
19359;DHT22;9815;52.334;20.890;2022-10-28T04:56:48;7.80;99.90
19359;DHT22;9815;52.334;20.890;2022-10-28T04:59:16;7.80;99.90
19359;DHT22;9815;52.334;20.890;2022-10-28T05:01:44;7.80;99.90
19359;DHT22;9815;52.334;20.890;2022-10-28T05:04:12;7.80;99.90
19359;DHT22;9815;52.334;20.890;2022-10-28T05:06:41;7.80;99.90
19359;DHT22;9815;52.334;20.890;2022-10-28T05:09:09;7.70;99.90
19359;DHT22;9815;52.334;20.890;2022-10-28T05:11:37;7.60;99.90
19359;DHT22;9815;52.334;20.890;2022-10-28T05:14:05;7.70;99.90
19359;DHT22;9815;52.334;20.890;2022-10-28T05:16:33;7.70;99.90
19359;DHT22;9815;52.334;20.890;2022-10-28T05:19:02;7.70;99.90
19359;DHT22;9815;52.334;20.890;2022-10-28T05:21:30;7.70;99.90
19359;DHT22;9815;52.334;20.890;2022-10-28T05:23:59;7.70;99.90
19359;DHT22;9815;52.334;20.890;2022-10-28T05:26:27;7.60;99.90
19359;DHT22;9815;52.334;20.890;2022-10-28T05:28:55;7.60;99.90
19359;DHT22;9815;52.334;20.890;2022-10-28T05:31:23;7.60;99.90
19359;DHT22;9815;52.334;20.890;2022-10-28T05:33:51;7.60;99.90
19359;DHT22;9815;52.334;20.890;2022-10-28T05:36:19;7.70;99.90
19359;DHT22;9815;52.334;20.890;2022-10-28T05:38:47;7.60;99.90
19359;DHT22;9815;52.334;20.890;2022-10-28T05:41:16;7.60;99.90
19359;DHT22;9815;52.334;20.890;2022-10-28T05:43:44;7.70;99.90
19359;DHT22;9815;52.334;20.890;2022-10-28T05:46:12;7.70;99.90
19359;DHT22;9815;52.334;20.890;2022-10-28T05:48:40;7.70;99.90
19359;DHT22;9815;52.334;20.890;2022-10-28T05:51:08;7.70;99.90
19359;DHT22;9815;52.334;20.890;2022-10-28T05:53:36;7.70;99.90
19359;DHT22;9815;52.334;20.890;2022-10-28T05:56:04;7.70;99.90
19359;DHT22;9815;52.334;20.890;2022-10-28T05:58:34;7.70;99.90
19359;DHT22;9815;52.334;20.890;2022-10-28T06:01:05;7.70;99.90
19359;DHT22;9815;52.334;20.890;2022-10-28T06:03:34;7.80;99.90
19359;DHT22;9815;52.334;20.890;2022-10-28T06:06:02;7.80;99.90
19359;DHT22;9815;52.334;20.890;2022-10-28T06:08:30;7.80;99.90
19359;DHT22;9815;52.334;20.890;2022-10-28T06:10:58;7.90;99.90
19359;DHT22;9815;52.334;20.890;2022-10-28T06:13:27;7.90;99.90
19359;DHT22;9815;52.334;20.890;2022-10-28T06:15:56;8.00;99.90
19359;DHT22;9815;52.334;20.890;2022-10-28T06:18:24;8.10;99.90
19359;DHT22;9815;52.334;20.890;2022-10-28T06:20:53;8.10;99.90
19359;DHT22;9815;52.334;20.890;2022-10-28T06:23:21;8.10;99.90
19359;DHT22;9815;52.334;20.890;2022-10-28T06:25:50;8.10;99.90
19359;DHT22;9815;52.334;20.890;2022-10-28T06:28:18;8.20;99.90
19359;DHT22;9815;52.334;20.890;2022-10-28T06:30:46;8.20;99.90
19359;DHT22;9815;52.334;20.890;2022-10-28T06:33:15;8.30;99.90
19359;DHT22;9815;52.334;20.890;2022-10-28T06:35:43;8.40;99.90
19359;DHT22;9815;52.334;20.890;2022-10-28T06:38:12;8.50;99.90
19359;DHT22;9815;52.334;20.890;2022-10-28T06:40:39;8.60;99.90
19359;DHT22;9815;52.334;20.890;2022-10-28T06:43:08;8.70;99.90
19359;DHT22;9815;52.334;20.890;2022-10-28T06:45:38;8.80;99.90
19359;DHT22;9815;52.334;20.890;2022-10-28T06:48:06;8.90;99.90
19359;DHT22;9815;52.334;20.890;2022-10-28T06:50:35;9.00;99.90
19359;DHT22;9815;52.334;20.890;2022-10-28T06:53:04;9.10;99.90
19359;DHT22;9815;52.334;20.890;2022-10-28T06:55:32;9.30;99.90
19359;DHT22;9815;52.334;20.890;2022-10-28T06:58:01;9.50;99.90
19359;DHT22;9815;52.334;20.890;2022-10-28T07:00:30;9.60;99.90
19359;DHT22;9815;52.334;20.890;2022-10-28T07:02:59;9.80;99.90
19359;DHT22;9815;52.334;20.890;2022-10-28T07:05:27;10.00;99.90
19359;DHT22;9815;52.334;20.890;2022-10-28T07:07:56;10.10;99.90
19359;DHT22;9815;52.334;20.890;2022-10-28T07:10:24;10.20;99.90
19359;DHT22;9815;52.334;20.890;2022-10-28T07:12:52;10.30;99.90
19359;DHT22;9815;52.334;20.890;2022-10-28T07:15:21;10.40;99.90
19359;DHT22;9815;52.334;20.890;2022-10-28T07:17:52;10.50;99.90
19359;DHT22;9815;52.334;20.890;2022-10-28T07:20:20;10.50;99.90
19359;DHT22;9815;52.334;20.890;2022-10-28T07:22:54;10.60;99.90
19359;DHT22;9815;52.334;20.890;2022-10-28T07:25:23;10.70;99.90
19359;DHT22;9815;52.334;20.890;2022-10-28T07:27:51;10.90;99.90
19359;DHT22;9815;52.334;20.890;2022-10-28T07:30:20;11.00;99.90
19359;DHT22;9815;52.334;20.890;2022-10-28T07:32:48;11.10;99.90
19359;DHT22;9815;52.334;20.890;2022-10-28T07:35:16;11.20;99.90
19359;DHT22;9815;52.334;20.890;2022-10-28T07:37:47;11.20;99.90
19359;DHT22;9815;52.334;20.890;2022-10-28T07:40:15;11.30;99.90
19359;DHT22;9815;52.334;20.890;2022-10-28T07:42:45;11.40;99.90
19359;DHT22;9815;52.334;20.890;2022-10-28T07:45:13;11.50;99.90
19359;DHT22;9815;52.334;20.890;2022-10-28T07:47:41;11.70;99.90
19359;DHT22;9815;52.334;20.890;2022-10-28T07:50:10;11.80;99.90
19359;DHT22;9815;52.334;20.890;2022-10-28T07:52:39;12.00;99.90
19359;DHT22;9815;52.334;20.890;2022-10-28T07:55:09;12.00;99.90
19359;DHT22;9815;52.334;20.890;2022-10-28T07:57:37;11.90;99.90
19359;DHT22;9815;52.334;20.890;2022-10-28T08:00:07;12.00;99.90
19359;DHT22;9815;52.334;20.890;2022-10-28T08:02:38;12.00;99.90
19359;DHT22;9815;52.334;20.890;2022-10-28T08:05:07;12.10;99.90
19359;DHT22;9815;52.334;20.890;2022-10-28T08:07:35;12.30;99.90
19359;DHT22;9815;52.334;20.890;2022-10-28T08:10:05;12.50;99.90
19359;DHT22;9815;52.334;20.890;2022-10-28T08:12:34;12.70;99.90
19359;DHT22;9815;52.334;20.890;2022-10-28T08:15:02;13.10;99.90
19359;DHT22;9815;52.334;20.890;2022-10-28T08:17:31;13.10;99.90
19359;DHT22;9815;52.334;20.890;2022-10-28T08:19:59;13.20;99.90
19359;DHT22;9815;52.334;20.890;2022-10-28T08:22:27;13.20;99.90
19359;DHT22;9815;52.334;20.890;2022-10-28T08:24:55;13.20;99.90
19359;DHT22;9815;52.334;20.890;2022-10-28T08:27:23;13.20;99.90
19359;DHT22;9815;52.334;20.890;2022-10-28T08:29:51;13.20;99.90
19359;DHT22;9815;52.334;20.890;2022-10-28T08:32:20;13.20;99.90
19359;DHT22;9815;52.334;20.890;2022-10-28T08:34:49;13.30;99.90
19359;DHT22;9815;52.334;20.890;2022-10-28T08:37:17;13.40;99.90
19359;DHT22;9815;52.334;20.890;2022-10-28T08:39:45;13.50;99.90
19359;DHT22;9815;52.334;20.890;2022-10-28T08:42:32;13.60;99.90
19359;DHT22;9815;52.334;20.890;2022-10-28T08:45:24;13.60;99.90
19359;DHT22;9815;52.334;20.890;2022-10-28T08:48:08;13.70;99.90
19359;DHT22;9815;52.334;20.890;2022-10-28T08:50:46;13.80;99.90
19359;DHT22;9815;52.334;20.890;2022-10-28T08:53:18;13.90;99.90
19359;DHT22;9815;52.334;20.890;2022-10-28T08:55:49;14.00;99.90
19359;DHT22;9815;52.334;20.890;2022-10-28T08:58:20;14.20;99.90
19359;DHT22;9815;52.334;20.890;2022-10-28T09:00:52;14.40;99.90
19359;DHT22;9815;52.334;20.890;2022-10-28T09:03:22;14.60;99.90
19359;DHT22;9815;52.334;20.890;2022-10-28T09:05:58;14.70;99.90
19359;DHT22;9815;52.334;20.890;2022-10-28T09:08:29;14.80;99.90
19359;DHT22;9815;52.334;20.890;2022-10-28T09:11:05;14.90;99.90
19359;DHT22;9815;52.334;20.890;2022-10-28T09:13:49;15.10;99.90
19359;DHT22;9815;52.334;20.890;2022-10-28T09:16:31;15.20;99.90
19359;DHT22;9815;52.334;20.890;2022-10-28T09:19:03;15.10;99.90
19359;DHT22;9815;52.334;20.890;2022-10-28T09:21:45;15.10;99.90
19359;DHT22;9815;52.334;20.890;2022-10-28T09:24:18;15.20;99.90
19359;DHT22;9815;52.334;20.890;2022-10-28T09:26:51;15.40;99.90
19359;DHT22;9815;52.334;20.890;2022-10-28T09:29:31;15.60;99.90
19359;DHT22;9815;52.334;20.890;2022-10-28T09:32:15;15.80;99.90
19359;DHT22;9815;52.334;20.890;2022-10-28T09:34:49;15.90;99.90
19359;DHT22;9815;52.334;20.890;2022-10-28T09:37:27;16.00;99.90
19359;DHT22;9815;52.334;20.890;2022-10-28T09:40:00;16.00;99.90
19359;DHT22;9815;52.334;20.890;2022-10-28T09:42:31;16.00;99.90
19359;DHT22;9815;52.334;20.890;2022-10-28T09:45:04;16.10;99.90
19359;DHT22;9815;52.334;20.890;2022-10-28T09:47:36;16.30;99.90
19359;DHT22;9815;52.334;20.890;2022-10-28T09:50:12;16.40;99.90
19359;DHT22;9815;52.334;20.890;2022-10-28T09:52:50;16.70;99.90
19359;DHT22;9815;52.334;20.890;2022-10-28T09:55:21;17.00;99.90
19359;DHT22;9815;52.334;20.890;2022-10-28T09:57:49;17.00;99.90
19359;DHT22;9815;52.334;20.890;2022-10-28T10:00:18;17.10;99.90
19359;DHT22;9815;52.334;20.890;2022-10-28T10:02:46;17.20;99.90
19359;DHT22;9815;52.334;20.890;2022-10-28T10:05:17;17.10;99.90
19359;DHT22;9815;52.334;20.890;2022-10-28T10:07:49;17.30;99.90
19359;DHT22;9815;52.334;20.890;2022-10-28T10:10:22;17.70;99.90
19359;DHT22;9815;52.334;20.890;2022-10-28T10:12:54;18.00;98.50
19359;DHT22;9815;52.334;20.890;2022-10-28T10:15:28;18.20;97.30
19359;DHT22;9815;52.334;20.890;2022-10-28T10:17:59;18.10;96.60
19359;DHT22;9815;52.334;20.890;2022-10-28T10:20:45;18.10;98.30
19359;DHT22;9815;52.334;20.890;2022-10-28T10:23:25;18.30;97.20
19359;DHT22;9815;52.334;20.890;2022-10-28T10:25:56;18.50;97.60
19359;DHT22;9815;52.334;20.890;2022-10-28T10:28:26;18.70;95.30
19359;DHT22;9815;52.334;20.890;2022-10-28T10:30:56;18.90;93.00
19359;DHT22;9815;52.334;20.890;2022-10-28T10:33:27;19.10;93.00
19359;DHT22;9815;52.334;20.890;2022-10-28T10:36:00;19.40;91.90
19359;DHT22;9815;52.334;20.890;2022-10-28T10:38:31;19.60;90.70
19359;DHT22;9815;52.334;20.890;2022-10-28T10:40:59;19.60;90.10
19359;DHT22;9815;52.334;20.890;2022-10-28T10:43:30;19.60;90.50
19359;DHT22;9815;52.334;20.890;2022-10-28T10:46:00;19.50;91.00
19359;DHT22;9815;52.334;20.890;2022-10-28T10:48:29;19.70;90.10
19359;DHT22;9815;52.334;20.890;2022-10-28T10:51:04;19.80;89.50
19359;DHT22;9815;52.334;20.890;2022-10-28T10:53:35;19.90;88.20
19359;DHT22;9815;52.334;20.890;2022-10-28T10:56:06;20.20;89.40
19359;DHT22;9815;52.334;20.890;2022-10-28T10:58:38;20.20;85.80
19359;DHT22;9815;52.334;20.890;2022-10-28T11:01:07;20.30;83.60
19359;DHT22;9815;52.334;20.890;2022-10-28T11:03:38;20.40;85.00
19359;DHT22;9815;52.334;20.890;2022-10-28T11:06:19;20.30;81.80
19359;DHT22;9815;52.334;20.890;2022-10-28T11:08:56;20.20;84.40
19359;DHT22;9815;52.334;20.890;2022-10-28T11:11:32;20.50;84.60
19359;DHT22;9815;52.334;20.890;2022-10-28T11:14:05;20.70;83.90
19359;DHT22;9815;52.334;20.890;2022-10-28T11:16:47;20.60;79.90
19359;DHT22;9815;52.334;20.890;2022-10-28T11:19:21;20.70;79.50
19359;DHT22;9815;52.334;20.890;2022-10-28T11:22:10;20.50;79.10
19359;DHT22;9815;52.334;20.890;2022-10-28T11:25:18;20.70;80.30
19359;DHT22;9815;52.334;20.890;2022-10-28T11:27:55;20.50;81.10
19359;DHT22;9815;52.334;20.890;2022-10-28T11:30:36;20.60;81.40
19359;DHT22;9815;52.334;20.890;2022-10-28T11:33:12;20.80;79.20
19359;DHT22;9815;52.334;20.890;2022-10-28T11:36:02;20.90;77.80
19359;DHT22;9815;52.334;20.890;2022-10-28T11:38:50;20.90;76.80
19359;DHT22;9815;52.334;20.890;2022-10-28T11:41:36;20.80;77.80
19359;DHT22;9815;52.334;20.890;2022-10-28T11:44:17;21.00;76.70
19359;DHT22;9815;52.334;20.890;2022-10-28T11:46:53;21.20;77.90
19359;DHT22;9815;52.334;20.890;2022-10-28T11:49:52;21.30;76.00
19359;DHT22;9815;52.334;20.890;2022-10-28T11:52:37;21.40;74.30
19359;DHT22;9815;52.334;20.890;2022-10-28T11:55:17;21.50;74.10
19359;DHT22;9815;52.334;20.890;2022-10-28T11:57:55;21.50;73.40
19359;DHT22;9815;52.334;20.890;2022-10-28T12:00:47;21.40;73.40
19359;DHT22;9815;52.334;20.890;2022-10-28T12:06:23;21.00;74.80
19359;DHT22;9815;52.334;20.890;2022-10-28T12:09:04;21.10;76.80
19359;DHT22;9815;52.334;20.890;2022-10-28T12:11:42;21.10;76.20
19359;DHT22;9815;52.334;20.890;2022-10-28T12:14:21;21.00;75.30
19359;DHT22;9815;52.334;20.890;2022-10-28T12:16:54;21.10;75.70
19359;DHT22;9815;52.334;20.890;2022-10-28T12:19:27;21.10;76.10
19359;DHT22;9815;52.334;20.890;2022-10-28T12:22:00;21.20;76.30
19359;DHT22;9815;52.334;20.890;2022-10-28T12:24:33;21.10;75.30
19359;DHT22;9815;52.334;20.890;2022-10-28T12:27:06;21.10;75.30
19359;DHT22;9815;52.334;20.890;2022-10-28T12:29:47;21.10;75.20
19359;DHT22;9815;52.334;20.890;2022-10-28T12:32:20;21.10;76.80
19359;DHT22;9815;52.334;20.890;2022-10-28T12:34:52;21.00;76.80
19359;DHT22;9815;52.334;20.890;2022-10-28T12:37:24;20.80;78.10
19359;DHT22;9815;52.334;20.890;2022-10-28T12:39:56;20.80;77.40
19359;DHT22;9815;52.334;20.890;2022-10-28T12:42:29;20.70;78.10
19359;DHT22;9815;52.334;20.890;2022-10-28T12:45:03;20.60;79.20
19359;DHT22;9815;52.334;20.890;2022-10-28T12:47:37;20.60;80.20
19359;DHT22;9815;52.334;20.890;2022-10-28T12:50:16;20.50;81.70
19359;DHT22;9815;52.334;20.890;2022-10-28T12:52:52;20.50;81.80
19359;DHT22;9815;52.334;20.890;2022-10-28T12:55:29;20.40;81.70
19359;DHT22;9815;52.334;20.890;2022-10-28T12:58:03;20.30;83.20
19359;DHT22;9815;52.334;20.890;2022-10-28T13:00:36;20.20;81.70
19359;DHT22;9815;52.334;20.890;2022-10-28T13:03:11;20.10;85.10
19359;DHT22;9815;52.334;20.890;2022-10-28T13:05:41;19.90;84.80
19359;DHT22;9815;52.334;20.890;2022-10-28T13:08:39;19.80;86.10
19359;DHT22;9815;52.334;20.890;2022-10-28T13:14:38;19.60;90.00
19359;DHT22;9815;52.334;20.890;2022-10-28T13:17:26;19.40;90.30
19359;DHT22;9815;52.334;20.890;2022-10-28T13:20:11;19.20;92.30
19359;DHT22;9815;52.334;20.890;2022-10-28T13:25:46;18.90;94.00
19359;DHT22;9815;52.334;20.890;2022-10-28T13:28:18;18.70;93.90
19359;DHT22;9815;52.334;20.890;2022-10-28T13:30:52;18.50;94.90
19359;DHT22;9815;52.334;20.890;2022-10-28T13:33:23;18.40;95.10
19359;DHT22;9815;52.334;20.890;2022-10-28T13:35:52;18.30;96.60
19359;DHT22;9815;52.334;20.890;2022-10-28T13:38:24;18.20;97.60
19359;DHT22;9815;52.334;20.890;2022-10-28T13:44:26;18.10;98.20
19359;DHT22;9815;52.334;20.890;2022-10-28T13:47:23;18.00;99.20
19359;DHT22;9815;52.334;20.890;2022-10-28T13:50:15;17.80;99.90
19359;DHT22;9815;52.334;20.890;2022-10-28T13:56:11;17.50;99.90
19359;DHT22;9815;52.334;20.890;2022-10-28T13:58:52;17.30;99.90
19359;DHT22;9815;52.334;20.890;2022-10-28T14:01:37;17.30;99.90
19359;DHT22;9815;52.334;20.890;2022-10-28T14:04:26;17.20;99.90
19359;DHT22;9815;52.334;20.890;2022-10-28T14:07:16;17.10;99.90
19359;DHT22;9815;52.334;20.890;2022-10-28T14:09:50;17.10;99.90
19359;DHT22;9815;52.334;20.890;2022-10-28T14:12:23;17.10;99.90
19359;DHT22;9815;52.334;20.890;2022-10-28T14:14:58;17.00;99.90
19359;DHT22;9815;52.334;20.890;2022-10-28T14:17:33;17.00;99.90
19359;DHT22;9815;52.334;20.890;2022-10-28T14:20:04;17.00;99.90
19359;DHT22;9815;52.334;20.890;2022-10-28T14:22:35;17.00;99.90
19359;DHT22;9815;52.334;20.890;2022-10-28T14:28:51;16.80;99.90
19359;DHT22;9815;52.334;20.890;2022-10-28T14:31:41;16.70;99.90
19359;DHT22;9815;52.334;20.890;2022-10-28T14:34:34;16.70;99.90
19359;DHT22;9815;52.334;20.890;2022-10-28T14:37:21;16.60;99.90
19359;DHT22;9815;52.334;20.890;2022-10-28T14:40:05;16.60;99.90
19359;DHT22;9815;52.334;20.890;2022-10-28T14:42:49;16.50;99.90
19359;DHT22;9815;52.334;20.890;2022-10-28T14:45:25;16.40;99.90
19359;DHT22;9815;52.334;20.890;2022-10-28T14:48:14;16.30;99.90
19359;DHT22;9815;52.334;20.890;2022-10-28T14:50:47;16.30;99.90
19359;DHT22;9815;52.334;20.890;2022-10-28T14:53:21;16.20;99.90
19359;DHT22;9815;52.334;20.890;2022-10-28T14:55:57;16.20;99.90
19359;DHT22;9815;52.334;20.890;2022-10-28T14:58:29;16.10;99.90
19359;DHT22;9815;52.334;20.890;2022-10-28T15:01:20;16.10;99.90
19359;DHT22;9815;52.334;20.890;2022-10-28T15:03:52;16.00;99.90
19359;DHT22;9815;52.334;20.890;2022-10-28T15:06:34;16.00;99.90
19359;DHT22;9815;52.334;20.890;2022-10-28T15:09:12;15.90;99.90
19359;DHT22;9815;52.334;20.890;2022-10-28T15:11:44;15.90;99.90
19359;DHT22;9815;52.334;20.890;2022-10-28T15:14:25;15.90;99.90
19359;DHT22;9815;52.334;20.890;2022-10-28T15:16:54;15.90;99.90
19359;DHT22;9815;52.334;20.890;2022-10-28T15:19:24;15.90;99.90
19359;DHT22;9815;52.334;20.890;2022-10-28T15:22:00;15.80;99.90
19359;DHT22;9815;52.334;20.890;2022-10-28T15:24:28;15.70;99.90
19359;DHT22;9815;52.334;20.890;2022-10-28T15:26:58;15.70;99.90
19359;DHT22;9815;52.334;20.890;2022-10-28T15:29:26;15.60;99.90
19359;DHT22;9815;52.334;20.890;2022-10-28T15:32:13;15.50;99.90
19359;DHT22;9815;52.334;20.890;2022-10-28T15:34:42;15.50;99.90
19359;DHT22;9815;52.334;20.890;2022-10-28T15:37:14;15.40;99.90
19359;DHT22;9815;52.334;20.890;2022-10-28T15:39:44;15.40;99.90
19359;DHT22;9815;52.334;20.890;2022-10-28T15:42:37;15.30;99.90
19359;DHT22;9815;52.334;20.890;2022-10-28T15:45:16;15.30;99.90
19359;DHT22;9815;52.334;20.890;2022-10-28T15:47:45;15.30;99.90
19359;DHT22;9815;52.334;20.890;2022-10-28T15:50:22;15.30;99.90
19359;DHT22;9815;52.334;20.890;2022-10-28T15:52:51;15.30;99.90
19359;DHT22;9815;52.334;20.890;2022-10-28T15:55:31;15.30;99.90
19359;DHT22;9815;52.334;20.890;2022-10-28T15:58:33;15.40;99.90
19359;DHT22;9815;52.334;20.890;2022-10-28T16:01:02;15.30;99.90
19359;DHT22;9815;52.334;20.890;2022-10-28T16:03:41;15.30;99.90
19359;DHT22;9815;52.334;20.890;2022-10-28T16:06:23;15.30;99.90
19359;DHT22;9815;52.334;20.890;2022-10-28T16:09:04;15.30;99.90
19359;DHT22;9815;52.334;20.890;2022-10-28T16:11:34;15.30;99.90
19359;DHT22;9815;52.334;20.890;2022-10-28T16:14:29;15.30;99.90
19359;DHT22;9815;52.334;20.890;2022-10-28T16:17:09;15.30;99.90
19359;DHT22;9815;52.334;20.890;2022-10-28T16:19:41;15.30;99.90
19359;DHT22;9815;52.334;20.890;2022-10-28T16:22:11;15.30;99.90
19359;DHT22;9815;52.334;20.890;2022-10-28T16:24:40;15.30;99.90
19359;DHT22;9815;52.334;20.890;2022-10-28T16:27:15;15.40;99.90
19359;DHT22;9815;52.334;20.890;2022-10-28T16:29:44;15.40;99.90
19359;DHT22;9815;52.334;20.890;2022-10-28T16:32:13;15.40;99.90
19359;DHT22;9815;52.334;20.890;2022-10-28T16:34:42;15.40;99.90
19359;DHT22;9815;52.334;20.890;2022-10-28T16:37:20;15.40;99.90